Time;durP1;ratioP1;P1;durP2;ratioP2;P2;SDS_P1;SDS_P2;PMS_P1;PMS_P2;Temp;Humidity;BMP_temperature;BMP_pressure;BME280_temperature;BME280_humidity;BME280_pressure;Samples;Min_cycle;Max_cycle;Signal;HPM_P1;HPM_P2
2023/12/21 00:02:17;;;;;;;7.30;5.80;;;;;;;4.20;77.81;98543.03;105749;1261;73840;-79
2023/12/21 00:04:44;;;;;;;6.50;4.90;;;;;;;4.14;78.35;98541.20;105747;1263;68203;-79
2023/12/21 00:07:12;;;;;;;6.20;5.10;;;;;;;4.18;78.41;98550.98;105767;1257;72839;-79
2023/12/21 00:09:40;;;;;;;7.80;4.70;;;;;;;4.19;78.71;98548.25;105590;1262;60418;-79
2023/12/21 00:12:07;;;;;;;6.60;4.80;;;;;;;4.16;78.97;98551.01;105890;1260;60438;-77
2023/12/21 00:14:34;;;;;;;5.20;4.30;;;;;;;4.10;79.41;98559.17;106592;1262;72657;-79
2023/12/21 00:17:02;;;;;;;5.70;4.50;;;;;;;4.05;79.44;98563.80;106533;1257;68755;-80
2023/12/21 00:19:30;;;;;;;5.30;4.50;;;;;;;4.11;79.30;98566.08;105813;1262;72721;-79
2023/12/21 00:21:57;;;;;;;4.60;3.90;;;;;;;4.19;79.51;98570.31;105740;1262;60525;-77
2023/12/21 00:24:25;;;;;;;4.70;4.10;;;;;;;4.19;79.70;98566.02;105816;1257;60616;-78
2023/12/21 00:26:52;;;;;;;5.80;4.20;;;;;;;4.14;79.73;98569.40;105749;1262;71610;-78
2023/12/21 00:29:20;;;;;;;5.90;4.50;;;;;;;4.10;79.91;98570.18;105720;1262;70458;-79
2023/12/21 00:31:47;;;;;;;4.60;4.00;;;;;;;4.09;80.14;98569.98;105749;1261;71444;-78
2023/12/21 00:34:15;;;;;;;4.00;3.50;;;;;;;4.16;79.85;98564.66;105617;1262;60500;-78
2023/12/21 00:36:45;;;;;;;4.50;3.50;;;;;;;4.19;80.09;98568.30;107199;1256;60325;-77
2023/12/21 00:39:13;;;;;;;5.00;3.60;;;;;;;4.14;79.87;98558.88;107939;1257;74035;-78
2023/12/21 00:41:40;;;;;;;3.90;3.50;;;;;;;4.12;79.97;98559.13;106758;1257;70707;-78
2023/12/21 00:44:07;;;;;;;3.90;3.30;;;;;;;4.10;79.87;98554.55;106012;1265;72921;-79
2023/12/21 00:46:35;;;;;;;3.70;3.10;;;;;;;4.19;79.77;98550.58;106391;1257;60851;-78
2023/12/21 00:49:02;;;;;;;4.30;3.30;;;;;;;4.25;79.60;98549.20;106250;1257;60619;-77
2023/12/21 00:51:30;;;;;;;4.90;3.00;;;;;;;4.23;79.28;98551.41;106303;1263;72695;-75
2023/12/21 00:53:58;;;;;;;3.30;3.00;;;;;;;4.17;79.53;98551.47;107213;1256;67734;-77
2023/12/21 00:56:25;;;;;;;3.80;3.00;;;;;;;4.12;79.25;98552.26;109043;1257;71398;-78
2023/12/21 00:58:53;;;;;;;4.10;2.90;;;;;;;4.12;79.18;98551.96;109094;1256;59701;-79
2023/12/21 01:01:20;;;;;;;3.10;2.50;;;;;;;4.21;78.90;98552.41;109168;1258;58826;-77
2023/12/21 01:03:48;;;;;;;3.00;2.40;;;;;;;4.24;78.51;98550.25;109087;1257;72475;-77
2023/12/21 01:06:15;;;;;;;3.30;2.70;;;;;;;4.16;78.56;98544.84;109198;1257;69027;-79
2023/12/21 01:08:43;;;;;;;4.10;3.10;;;;;;;4.12;78.45;98546.47;109137;1257;70997;-78
2023/12/21 01:11:10;;;;;;;3.90;2.90;;;;;;;4.07;78.53;98543.48;109259;1257;57999;-78
2023/12/21 01:13:38;;;;;;;3.60;2.80;;;;;;;4.05;78.43;98544.10;109279;1257;58894;-78
2023/12/21 01:16:06;;;;;;;2.70;2.30;;;;;;;4.11;78.11;98549.26;109171;1257;72700;-75
2023/12/21 01:18:33;;;;;;;4.00;2.70;;;;;;;4.15;77.95;98547.08;109102;1264;68723;-75
2023/12/21 01:21:01;;;;;;;4.10;2.40;;;;;;;4.12;78.18;98550.52;109164;1257;70298;-73
2023/12/21 01:23:28;;;;;;;3.80;2.70;;;;;;;4.07;77.89;98548.08;109216;1258;58075;-76
2023/12/21 01:25:56;;;;;;;3.90;2.80;;;;;;;4.04;78.18;98546.85;109115;1257;58860;-77
2023/12/21 01:28:23;;;;;;;3.60;2.60;;;;;;;4.04;78.18;98542.45;109186;1256;72604;-77
2023/12/21 01:30:51;;;;;;;4.00;2.70;;;;;;;4.14;77.65;98540.70;109144;1256;68758;-76
2023/12/21 01:33:18;;;;;;;3.20;2.30;;;;;;;4.17;76.96;98543.39;109274;1256;72000;-75
2023/12/21 01:35:46;;;;;;;3.00;2.50;;;;;;;4.15;76.59;98544.13;109164;1257;60464;-75
2023/12/21 01:38:14;;;;;;;2.40;2.10;;;;;;;4.11;76.05;98546.55;109220;1257;58909;-77
2023/12/21 01:40:41;;;;;;;2.70;2.30;;;;;;;4.09;75.50;98554.63;109164;1257;72631;-76
2023/12/21 01:43:09;;;;;;;3.30;2.60;;;;;;;4.14;75.32;98553.13;109177;1256;68706;-74
2023/12/21 01:45:36;;;;;;;3.40;2.20;;;;;;;4.26;74.61;98553.86;109200;1262;71394;-78
2023/12/21 01:48:04;;;;;;;3.70;2.80;;;;;;;4.29;74.34;98553.16;109175;1256;58910;-77
2023/12/21 01:50:32;;;;;;;3.70;2.60;;;;;;;4.28;74.16;98549.32;109310;1256;58892;-78
2023/12/21 01:52:59;;;;;;;3.40;2.30;;;;;;;4.26;74.35;98547.73;109302;1256;73251;-75
2023/12/21 01:55:27;;;;;;;3.40;2.20;;;;;;;4.24;74.24;98544.40;109206;1257;68738;-76
2023/12/21 01:57:58;;;;;;;3.10;2.30;;;;;;;4.22;73.92;98547.27;109220;1256;71555;-76
2023/12/21 02:00:26;;;;;;;4.00;2.70;;;;;;;4.20;73.56;98543.66;109135;1257;59801;-78
2023/12/21 02:02:53;;;;;;;3.90;2.20;;;;;;;4.26;73.40;98543.69;109205;1257;58786;-76
2023/12/21 02:05:21;;;;;;;3.30;2.40;;;;;;;4.30;73.12;98534.64;109218;1256;72543;-77
2023/12/21 02:07:48;;;;;;;2.30;2.10;;;;;;;4.28;73.06;98534.55;109206;1258;69182;-77
2023/12/21 02:10:19;;;;;;;3.90;2.50;;;;;;;4.24;72.91;98531.58;109174;1257;71296;-76
2023/12/21 02:12:46;;;;;;;3.00;2.30;;;;;;;4.22;72.85;98532.23;109183;1257;58040;-77
2023/12/21 02:15:14;;;;;;;3.10;2.50;;;;;;;4.19;72.71;98526.92;109205;1256;58729;-77
2023/12/21 02:17:42;;;;;;;4.30;2.30;;;;;;;4.15;72.36;98520.23;109149;1257;72512;-76
2023/12/21 02:20:10;;;;;;;4.10;2.40;;;;;;;4.16;71.98;98519.62;109150;1257;69664;-77
2023/12/21 02:22:38;;;;;;;3.50;2.70;;;;;;;4.20;71.87;98520.65;109142;1256;71343;-78
2023/12/21 02:25:05;;;;;;;6.10;4.10;;;;;;;4.13;72.32;98516.80;109277;1256;58340;-76
2023/12/21 02:27:33;;;;;;;3.80;2.40;;;;;;;4.05;72.05;98513.34;109219;1257;58779;-76
2023/12/21 02:30:01;;;;;;;3.50;2.50;;;;;;;3.96;71.84;98517.30;109032;1257;72609;-78
2023/12/21 02:32:28;;;;;;;4.80;3.10;;;;;;;3.88;72.19;98516.19;109347;1257;68811;-76
2023/12/21 02:34:56;;;;;;;6.50;3.50;;;;;;;3.80;72.26;98513.90;109080;1257;71439;-78
2023/12/21 02:37:24;;;;;;;5.80;3.00;;;;;;;3.74;72.49;98520.23;109136;1257;59696;-79
2023/12/21 02:39:51;;;;;;;3.90;2.60;;;;;;;3.76;72.67;98522.48;108674;1257;395740;-77
2023/12/21 02:43:35;;;;;;;2.30;1.90;;;;;;;3.78;72.72;98522.56;106248;1288;600306;-78
2023/12/21 02:46:03;;;;;;;3.20;2.60;;;;;;;3.69;72.89;98523.27;108900;1261;58120;-77
2023/12/21 02:48:31;;;;;;;3.30;2.50;;;;;;;3.63;73.17;98527.09;108907;1260;58762;-77
2023/12/21 02:51:05;;;;;;;4.90;3.20;;;;;;;3.55;73.27;98530.17;108778;1259;70726;-76
2023/12/21 02:53:33;;;;;;;3.40;2.40;;;;;;;3.46;73.27;98524.40;108827;1262;68712;-79
2023/12/21 02:56:00;;;;;;;10.50;6.60;;;;;;;3.41;73.49;98524.92;108692;1259;167298;-77
2023/12/21 02:58:27;;;;;;;4.30;3.20;;;;;;;3.38;73.86;98522.20;108937;1257;59888;-77
2023/12/21 03:00:55;;;;;;;3.40;2.50;;;;;;;3.44;73.83;98520.41;108900;1257;58903;-78
2023/12/21 03:03:23;;;;;;;2.70;2.40;;;;;;;3.40;73.70;98515.70;108891;1257;69721;-77
2023/12/21 03:05:50;;;;;;;3.50;2.50;;;;;;;3.32;74.04;98515.92;108962;1258;71426;-77
2023/12/21 03:08:18;;;;;;;2.80;2.10;;;;;;;3.25;74.22;98515.77;109000;1258;71404;-79
2023/12/21 03:10:45;;;;;;;2.90;2.30;;;;;;;3.19;74.27;98511.51;108985;1258;58024;-83
2023/12/21 03:13:13;;;;;;;3.70;2.90;;;;;;;3.12;74.34;98514.41;108919;1259;58768;-80
2023/12/21 03:15:41;;;;;;;2.90;2.30;;;;;;;3.07;74.36;98515.80;108903;1257;71583;-81
2023/12/21 03:18:08;;;;;;;4.90;2.40;;;;;;;3.12;74.49;98513.20;108770;1257;68736;-80
2023/12/21 03:20:36;;;;;;;3.00;2.00;;;;;;;3.18;74.38;98505.16;108736;1258;71439;-81
2023/12/21 03:23:03;;;;;;;3.50;2.40;;;;;;;3.11;74.20;98501.91;108996;1259;59051;-81
2023/12/21 03:25:31;;;;;;;6.30;2.30;;;;;;;3.04;74.41;98502.13;109284;1257;57759;-79
2023/12/21 03:27:59;;;;;;;3.60;2.30;;;;;;;2.96;74.26;98497.08;109064;1257;71802;-79
2023/12/21 03:30:27;;;;;;;4.70;3.40;;;;;;;2.91;74.70;98497.62;109120;1258;69221;-78
2023/12/21 03:32:55;;;;;;;4.50;3.60;;;;;;;2.86;74.49;98493.70;109067;1256;71455;-78
2023/12/21 03:35:22;;;;;;;4.70;4.20;;;;;;;2.89;74.72;98492.70;109112;1257;59608;-80
2023/12/21 03:37:50;;;;;;;5.40;4.10;;;;;;;2.95;74.55;98498.42;108822;1258;58727;-80
2023/12/21 03:40:18;;;;;;;4.30;3.60;;;;;;;2.92;74.29;98503.14;108863;1257;74047;-78
2023/12/21 03:42:51;;;;;;;4.20;3.20;;;;;;;2.85;74.59;98506.23;108887;1257;68723;-79
2023/12/21 03:45:23;;;;;;;5.80;4.20;;;;;;;2.79;74.74;98508.94;108857;1257;71154;-80
2023/12/21 03:47:51;;;;;;;4.20;2.70;;;;;;;2.73;74.70;98507.35;108941;1258;58566;-80
2023/12/21 03:50:18;;;;;;;3.50;2.40;;;;;;;2.77;74.90;98504.86;109010;1259;58787;-78
2023/12/21 03:52:46;;;;;;;5.00;2.60;;;;;;;2.83;74.75;98502.08;108865;1258;71722;-81
2023/12/21 03:55:14;;;;;;;3.90;2.40;;;;;;;2.81;74.94;98503.33;108815;1259;68662;-80
2023/12/21 03:57:42;;;;;;;2.70;2.50;;;;;;;2.75;74.74;98503.70;108919;1259;71412;-80
2023/12/21 04:00:10;;;;;;;4.60;2.30;;;;;;;2.70;75.08;98504.53;108933;1259;58003;-80
2023/12/21 04:02:38;;;;;;;6.10;2.70;;;;;;;2.65;75.18;98508.02;108997;1259;58745;-80
2023/12/21 04:05:05;;;;;;;6.20;2.50;;;;;;;2.63;75.36;98506.61;108965;1259;71869;-78
2023/12/21 04:07:33;;;;;;;4.50;3.20;;;;;;;2.71;75.36;98506.50;108931;1258;68725;-78
2023/12/21 04:10:07;;;;;;;4.60;3.60;;;;;;;2.71;75.32;98511.77;108911;1259;71492;-79
2023/12/21 04:12:35;;;;;;;4.00;2.80;;;;;;;2.64;75.46;98509.80;108726;1259;58098;-77
2023/12/21 04:15:02;;;;;;;4.40;3.10;;;;;;;2.58;75.61;98511.48;108853;1260;58917;-76
2023/12/21 04:17:30;;;;;;;6.00;4.10;;;;;;;2.51;76.02;98508.42;108469;1260;71769;-78
2023/12/21 04:19:58;;;;;;;4.30;3.50;;;;;;;2.49;76.08;98508.83;106391;1263;67823;-78
2023/12/21 04:22:25;;;;;;;5.30;3.70;;;;;;;2.55;76.09;98509.61;106084;1259;72591;-79
2023/12/21 04:24:53;;;;;;;6.20;4.30;;;;;;;2.52;76.02;98515.71;105862;1264;59685;-76
2023/12/21 04:27:20;;;;;;;8.60;5.60;;;;;;;2.44;76.51;98513.02;105742;1261;60110;-75
2023/12/21 04:29:48;;;;;;;7.00;5.10;;;;;;;2.36;76.69;98516.71;105825;1260;71877;-75
2023/12/21 04:32:15;;;;;;;7.50;5.10;;;;;;;2.29;77.06;98522.98;105862;1261;70892;-76
2023/12/21 04:34:43;;;;;;;4.80;4.30;;;;;;;2.25;77.19;98519.98;105753;1263;73606;-76
2023/12/21 04:37:11;;;;;;;7.30;5.10;;;;;;;2.32;77.58;98517.23;105893;1261;59668;-76
2023/12/21 04:39:38;;;;;;;6.90;4.40;;;;;;;2.33;77.65;98515.00;106097;1266;60092;-76
2023/12/21 04:42:06;;;;;;;6.20;4.90;;;;;;;2.26;77.99;98515.51;106391;1260;71847;-76
2023/12/21 04:44:37;;;;;;;11.70;7.20;;;;;;;2.20;78.57;98513.66;106171;1260;68735;-77
2023/12/21 04:47:08;;;;;;;7.80;6.40;;;;;;;2.14;78.88;98515.95;106262;1256;72717;-76
2023/12/21 04:49:48;;;;;;;7.30;5.40;;;;;;;2.11;79.10;98515.49;106484;1258;59849;-76
2023/12/21 04:52:16;;;;;;;8.30;7.00;;;;;;;2.19;79.40;98520.37;106116;1260;59826;-76
2023/12/21 04:54:44;;;;;;;8.80;7.10;;;;;;;2.20;79.68;98514.21;106419;1256;73009;-75
2023/12/21 04:57:12;;;;;;;8.70;6.80;;;;;;;2.12;80.15;98515.30;106772;1260;69180;-75
2023/12/21 04:59:40;;;;;;;9.00;7.20;;;;;;;2.08;80.20;98518.66;106043;1260;71294;-75
2023/12/21 05:02:08;;;;;;;7.30;6.20;;;;;;;2.13;80.59;98515.38;106494;1258;61796;-75
2023/12/21 05:04:35;;;;;;;6.90;5.50;;;;;;;2.14;80.60;98509.34;107230;1258;59640;-76
2023/12/21 05:07:08;;;;;;;9.10;5.80;;;;;;;2.07;80.94;98520.24;107279;1261;71835;-75
2023/12/21 05:09:37;;;;;;;8.50;5.70;;;;;;;2.04;80.95;98522.49;107501;1256;68691;-75
2023/12/21 05:12:05;;;;;;;8.10;6.10;;;;;;;2.10;81.04;98524.86;107544;1260;71505;-75
2023/12/21 05:14:32;;;;;;;8.60;7.10;;;;;;;2.08;81.35;98527.83;107180;1257;59713;-77
2023/12/21 05:17:00;;;;;;;12.00;8.80;;;;;;;2.00;81.55;98529.66;107869;1255;59226;-77
2023/12/21 05:19:28;;;;;;;12.40;8.90;;;;;;;1.94;81.75;98527.20;107667;1257;71946;-75
2023/12/21 05:21:56;;;;;;;9.90;7.80;;;;;;;1.95;82.24;98526.95;107313;1261;71051;-76
2023/12/21 05:24:23;;;;;;;8.90;6.50;;;;;;;2.02;82.11;98523.33;107135;1257;72325;-77
2023/12/21 05:26:51;;;;;;;8.10;6.50;;;;;;;2.02;82.47;98527.77;107146;1263;59679;-77
2023/12/21 05:29:18;;;;;;;8.00;6.30;;;;;;;1.94;82.59;98525.90;106496;1260;59315;-76
2023/12/21 05:31:46;;;;;;;7.40;5.60;;;;;;;1.90;82.91;98525.33;107829;1257;71572;-81
2023/12/21 05:34:14;;;;;;;9.80;6.80;;;;;;;1.95;82.95;98529.05;107608;1255;68999;-80
2023/12/21 05:36:41;;;;;;;8.80;6.40;;;;;;;1.91;83.22;98531.26;107198;1258;70515;-78
2023/12/21 05:39:10;;;;;;;8.50;6.30;;;;;;;1.83;83.55;98535.08;106237;1260;60132;-80
2023/12/21 05:41:45;;;;;;;9.50;6.20;;;;;;;1.85;83.51;98542.92;106086;1260;59507;-77
2023/12/21 05:44:13;;;;;;;10.60;7.60;;;;;;;1.85;83.58;98538.45;105896;1260;71848;-81
2023/12/21 05:46:42;;;;;;;11.70;7.50;;;;;;;1.76;83.77;98535.92;105961;1261;68624;-80
2023/12/21 05:49:11;;;;;;;11.70;9.10;;;;;;;1.66;84.40;98536.98;106044;1257;71326;-78
2023/12/21 05:51:39;;;;;;;13.90;10.30;;;;;;;1.69;84.57;98531.97;105782;1261;59784;-81
2023/12/21 05:54:06;;;;;;;16.60;11.50;;;;;;;1.74;84.34;98535.35;106225;1260;59663;-79
2023/12/21 05:56:37;;;;;;;14.70;11.30;;;;;;;1.70;84.47;98531.26;106167;1260;71742;-79
2023/12/21 05:59:05;;;;;;;14.60;10.60;;;;;;;1.62;84.87;98528.00;106095;1260;70348;-80
2023/12/21 06:01:34;;;;;;;15.30;12.00;;;;;;;1.63;84.92;98528.43;106429;1256;72710;-83
2023/12/21 06:04:02;;;;;;;17.00;11.10;;;;;;;1.65;85.06;98532.21;108214;1257;59137;-82
2023/12/21 06:06:30;;;;;;;13.70;10.20;;;;;;;1.60;85.23;98527.27;109245;1255;58961;-81
2023/12/21 06:08:57;;;;;;;9.50;8.00;;;;;;;1.60;85.28;98519.89;108334;1260;71880;-81
2023/12/21 06:11:25;;;;;;;12.50;8.30;;;;;;;1.65;84.99;98525.89;106902;1260;68958;-81
2023/12/21 06:13:52;;;;;;;12.60;9.30;;;;;;;1.61;85.01;98528.92;107250;1256;71448;-79
2023/12/21 06:16:20;;;;;;;11.30;7.70;;;;;;;1.54;85.22;98536.66;108647;1254;59698;-82
2023/12/21 06:18:48;;;;;;;10.20;8.20;;;;;;;1.61;85.32;98543.39;109065;1253;58868;-81
2023/12/21 06:21:16;;;;;;;12.10;8.80;;;;;;;1.69;84.93;98530.79;108271;1257;73247;-81
2023/12/21 06:23:44;;;;;;;14.60;9.50;;;;;;;1.68;85.08;98529.95;108408;1256;68754;-77
2023/12/21 06:26:12;;;;;;;13.40;9.10;;;;;;;1.66;85.17;98535.91;107636;1257;71169;-83
2023/12/21 06:28:40;;;;;;;12.60;8.90;;;;;;;1.78;85.13;98543.05;107464;1257;61043;-81
2023/12/21 06:31:16;;;;;;;14.40;9.70;;;;;;;1.88;84.73;98544.77;107502;1256;59373;-81
2023/12/21 06:33:45;;;;;;;15.00;10.00;;;;;;;1.88;84.73;98553.12;108029;1257;71958;-82
2023/12/21 06:36:12;;;;;;;12.90;10.20;;;;;;;1.88;84.85;98550.83;107476;1257;68894;-82
2023/12/21 06:38:40;;;;;;;11.80;9.20;;;;;;;1.99;84.55;98552.46;107026;1261;72701;-76
2023/12/21 06:41:15;;;;;;;18.40;13.30;;;;;;;2.03;84.02;98551.87;106432;1257;59754;-81
2023/12/21 06:43:42;;;;;;;19.50;11.60;;;;;;;2.00;84.19;98551.39;106261;1257;60110;-80
2023/12/21 06:46:13;;;;;;;18.80;12.50;;;;;;;2.00;84.46;98552.38;106307;1258;73043;-78
2023/12/21 06:48:44;;;;;;;21.80;13.90;;;;;;;2.10;83.95;98555.95;106612;1260;70681;-82
2023/12/21 06:51:13;;;;;;;20.70;14.20;;;;;;;2.11;83.90;98561.49;106770;1257;74648;-80
2023/12/21 06:53:41;;;;;;;17.80;12.20;;;;;;;2.07;84.19;98560.24;106438;1261;60395;-80
2023/12/21 06:56:09;;;;;;;20.10;12.20;;;;;;;2.06;84.13;98560.90;106979;1257;60049;-82
2023/12/21 06:58:57;;;;;;;22.30;14.80;;;;;;;2.15;83.97;98566.69;108566;1256;73790;-81
2023/12/21 07:01:25;;;;;;;21.10;15.90;;;;;;;2.18;83.92;98564.80;109238;1257;69183;-80
2023/12/21 07:03:54;;;;;;;19.60;14.10;;;;;;;2.16;84.32;98565.08;107899;1257;71094;-81
2023/12/21 07:06:22;;;;;;;19.70;14.20;;;;;;;2.19;84.32;98564.91;107292;1256;60480;-81
2023/12/21 07:08:49;;;;;;;16.50;12.90;;;;;;;2.29;83.99;98564.52;107306;1259;60365;-83
2023/12/21 07:11:24;;;;;;;16.80;12.10;;;;;;;2.31;84.20;98561.91;108752;1257;73026;-85
2023/12/21 07:13:55;;;;;;;15.80;12.40;;;;;;;2.28;84.19;98561.48;108298;1257;70017;-86
2023/12/21 07:16:43;;;;;;;15.10;11.10;;;;;;;2.29;84.28;98561.02;108375;1256;71602;-87
2023/12/21 07:19:37;;;;;;;14.00;10.60;;;;;;;2.40;84.04;98559.64;108196;1257;59784;-86
2023/12/21 07:22:09;;;;;;;15.60;10.70;;;;;;;2.39;83.83;98560.63;108485;1255;59128;-85
2023/12/21 07:24:41;;;;;;;17.40;12.10;;;;;;;2.35;84.17;98566.34;108398;1255;72669;-88
2023/12/21 07:27:12;;;;;;;15.70;11.60;;;;;;;2.36;84.32;98566.81;107977;1255;69410;-86
2023/12/21 07:29:53;;;;;;;19.20;14.00;;;;;;;2.43;84.12;98568.44;108000;1257;72830;-87
2023/12/21 07:32:41;;;;;;;18.20;13.50;;;;;;;2.40;84.17;98562.09;108873;1256;60331;-87
2023/12/21 07:35:37;;;;;;;21.10;14.60;;;;;;;2.40;84.47;98574.52;108954;1257;59605;-86
2023/12/21 07:38:12;;;;;;;19.50;14.00;;;;;;;2.42;84.30;98566.59;108474;1257;74193;-85
2023/12/21 07:40:51;;;;;;;20.20;13.70;;;;;;;2.54;84.53;98569.82;108135;1257;72737;-87
2023/12/21 07:43:29;;;;;;;20.50;15.30;;;;;;;2.56;84.33;98563.52;108099;1258;71551;-85
2023/12/21 07:46:00;;;;;;;26.80;16.90;;;;;;;2.53;84.41;98562.42;108211;1258;58545;-85
2023/12/21 07:48:33;;;;;;;24.30;16.90;;;;;;;2.55;84.35;98561.53;108235;1257;59076;-87
2023/12/21 07:51:10;;;;;;;24.80;17.40;;;;;;;2.66;84.08;98551.62;108437;1258;72726;-88
2023/12/21 07:53:44;;;;;;;19.40;16.00;;;;;;;2.69;83.95;98554.61;109070;1257;68746;-87
2023/12/21 07:56:12;;;;;;;22.70;15.60;;;;;;;2.64;84.03;98549.16;109086;1257;71535;-88
2023/12/21 07:58:40;;;;;;;29.10;20.10;;;;;;;2.74;84.00;98548.04;109256;1255;62308;-88
2023/12/21 08:01:09;;;;;;;37.80;24.60;;;;;;;2.80;83.66;98549.42;109332;1255;58869;-88
2023/12/21 08:05:07;;;;;;;17.50;14.20;;;;;;;2.79;83.45;98547.17;103780;1291;616322;-84
2023/12/21 08:07:37;;;;;;;18.80;13.60;;;;;;;2.88;83.10;98554.05;107171;1259;59850;-87
2023/12/21 08:10:07;;;;;;;19.80;14.70;;;;;;;2.96;82.62;98547.84;106429;1261;60200;-87
2023/12/21 08:12:36;;;;;;;18.00;13.80;;;;;;;2.91;82.71;98536.77;106910;1260;71533;-87
2023/12/21 08:15:05;;;;;;;18.20;14.10;;;;;;;2.93;82.87;98545.61;106469;1263;70395;-87
2023/12/21 08:17:34;;;;;;;18.50;12.50;;;;;;;3.08;82.47;98536.29;106223;1256;310438;-87
2023/12/21 08:20:04;;;;;;;18.20;14.00;;;;;;;3.22;82.23;98533.75;106750;1256;59142;-87
2023/12/21 08:22:33;;;;;;;18.50;13.40;;;;;;;3.32;82.12;98539.39;106834;1257;59184;-85
2023/12/21 08:25:01;;;;;;;17.80;13.10;;;;;;;3.38;81.12;98538.87;107660;1255;70056;-84
2023/12/21 08:27:29;;;;;;;17.00;13.00;;;;;;;3.44;80.78;98532.83;107637;1256;69213;-87
2023/12/21 08:29:59;;;;;;;16.70;13.40;;;;;;;3.57;80.37;98525.63;109009;1256;71674;-86
2023/12/21 08:32:29;;;;;;;19.30;13.90;;;;;;;3.63;79.83;98520.02;108301;1256;60806;-85
2023/12/21 08:35:00;;;;;;;18.40;12.60;;;;;;;3.70;79.71;98515.21;107969;1256;59555;-85
2023/12/21 08:37:41;;;;;;;25.40;15.80;;;;;;;3.69;79.14;98513.33;107657;1262;71160;-86
2023/12/21 08:40:13;;;;;;;18.80;12.10;;;;;;;3.78;79.13;98511.40;108187;1257;69374;-85
2023/12/21 08:42:48;;;;;;;15.30;12.10;;;;;;;3.92;78.78;98504.36;108673;1257;71496;-86
2023/12/21 08:45:18;;;;;;;16.00;12.20;;;;;;;3.99;78.09;98498.31;108931;1256;59358;-86
2023/12/21 08:47:56;;;;;;;16.00;12.40;;;;;;;4.03;78.08;98495.17;109147;1256;58786;-88
2023/12/21 08:50:29;;;;;;;13.40;11.40;;;;;;;4.12;77.65;98493.55;109106;1263;72188;-87
2023/12/21 08:53:02;;;;;;;13.90;10.00;;;;;;;4.21;77.37;98487.98;109260;1256;69307;-87
2023/12/21 08:55:31;;;;;;;16.20;10.90;;;;;;;4.33;77.02;98483.19;109158;1256;71371;-87
2023/12/21 08:57:59;;;;;;;16.60;12.50;;;;;;;4.28;76.56;98477.70;108921;1262;60512;-87
2023/12/21 09:00:27;;;;;;;19.50;11.70;;;;;;;4.32;76.32;98484.35;108236;1256;58950;-89
2023/12/21 09:02:55;;;;;;;17.80;11.90;;;;;;;4.35;76.57;98475.82;108588;1257;72163;-87
2023/12/21 09:05:25;;;;;;;17.60;12.20;;;;;;;4.46;76.31;98469.88;108980;1257;69445;-86
2023/12/21 09:07:53;;;;;;;14.80;10.20;;;;;;;4.67;75.96;98476.18;108957;1256;71934;-87
2023/12/21 09:10:22;;;;;;;15.70;11.40;;;;;;;4.88;74.57;98479.66;108463;1256;59706;-86
2023/12/21 09:12:48;;;;;;;15.80;12.00;;;;;;;4.92;74.02;98471.90;108274;1257;59673;-86
2023/12/21 09:15:16;;;;;;;16.80;12.60;;;;;;;4.91;73.81;98465.69;107065;1258;73031;-84
2023/12/21 09:17:43;;;;;;;14.80;12.00;;;;;;;4.89;73.62;98459.30;107550;1256;69025;-88
2023/12/21 09:20:13;;;;;;;12.70;10.30;;;;;;;4.83;73.49;98456.38;107530;1260;71716;-86
2023/12/21 09:22:41;;;;;;;15.00;11.30;;;;;;;4.73;73.33;98453.83;108001;1257;59473;-86
2023/12/21 09:25:09;;;;;;;14.80;11.30;;;;;;;4.61;73.68;98450.35;108868;1253;60189;-85
2023/12/21 09:27:36;;;;;;;13.70;10.80;;;;;;;4.61;74.09;98445.05;108637;1254;71876;-86
2023/12/21 09:30:05;;;;;;;16.70;11.30;;;;;;;4.70;73.58;98448.43;107704;1253;69175;-84
2023/12/21 09:32:34;;;;;;;15.40;10.70;;;;;;;4.66;73.44;98443.16;107128;1254;73518;-83
2023/12/21 09:35:25;;;;;;;12.80;10.40;;;;;;;4.54;73.21;98441.43;108562;1251;60779;-88
2023/12/21 09:37:53;;;;;;;14.70;11.80;;;;;;;4.43;73.96;98438.35;107619;1256;59452;-87
2023/12/21 09:40:24;;;;;;;15.80;11.20;;;;;;;4.41;74.20;98433.97;108261;1257;71736;-84
2023/12/21 09:42:51;;;;;;;13.80;10.20;;;;;;;4.43;74.19;98438.31;108903;1257;69097;-88
2023/12/21 09:45:31;;;;;;;13.90;10.00;;;;;;;4.53;73.63;98436.95;109460;1255;73143;-87
2023/12/21 09:48:01;;;;;;;14.20;10.40;;;;;;;4.61;73.62;98434.34;108464;1256;58357;-84
2023/12/21 09:50:30;;;;;;;17.10;10.70;;;;;;;4.64;72.93;98431.94;107469;1256;59692;-83
2023/12/21 09:52:57;;;;;;;14.50;10.20;;;;;;;4.63;72.46;98422.56;106874;1256;72012;-85
2023/12/21 09:55:23;;;;;;;13.00;9.10;;;;;;;4.69;72.51;98419.98;105914;1256;70188;-84
2023/12/21 09:57:52;;;;;;;11.50;9.60;;;;;;;4.94;71.50;98416.83;106708;1257;72716;-85
2023/12/21 10:00:19;;;;;;;15.00;9.40;;;;;;;5.28;70.77;98408.45;106478;1256;59671;-85
2023/12/21 10:02:49;;;;;;;11.80;9.70;;;;;;;5.64;69.82;98409.73;107288;1255;59549;-87
2023/12/21 10:05:20;;;;;;;;;;;;;;;6.19;68.89;98403.81;108776;1256;71413;-83
2023/12/21 10:07:52;;;;;;;13.60;9.50;;;;;;;6.66;66.13;98403.33;106802;1261;70987;-86
2023/12/21 10:10:22;;;;;;;13.20;9.50;;;;;;;7.01;65.49;98400.92;106833;1256;71293;-87
2023/12/21 10:12:52;;;;;;;14.20;11.10;;;;;;;7.47;64.04;98400.77;107023;1257;59919;-84
2023/12/21 10:15:20;;;;;;;14.40;11.30;;;;;;;7.66;62.86;98406.27;106974;1256;60105;-85
2023/12/21 10:17:48;;;;;;;13.30;9.20;;;;;;;7.61;62.24;98403.00;106900;1264;74000;-87
2023/12/21 10:20:16;;;;;;;11.90;9.70;;;;;;;7.46;62.02;98393.72;106384;1257;70412;-87
2023/12/21 10:22:48;;;;;;;13.70;9.90;;;;;;;7.39;62.58;98395.23;107054;1256;72473;-84
2023/12/21 10:25:22;;;;;;;12.00;9.90;;;;;;;7.35;62.75;98399.55;107204;1256;59423;-85
2023/12/21 10:27:56;;;;;;;15.80;12.60;;;;;;;7.19;62.48;98398.45;107327;1255;59647;-88
2023/12/21 10:30:30;;;;;;;13.30;10.80;;;;;;;6.75;62.87;98395.21;107494;1257;72149;-85
2023/12/21 10:33:01;;;;;;;11.80;8.90;;;;;;;6.33;63.90;98392.09;107133;1263;70362;-85
2023/12/21 10:35:36;;;;;;;12.70;9.50;;;;;;;6.07;64.87;98397.15;107715;1255;71693;-85
2023/12/21 10:38:04;;;;;;;12.10;7.80;;;;;;;6.06;65.81;98399.33;108664;1255;59068;-87
2023/12/21 10:40:33;;;;;;;9.80;7.00;;;;;;;6.09;65.16;98396.73;109082;1257;57929;-85
2023/12/21 10:43:01;;;;;;;9.70;6.90;;;;;;;6.03;64.88;98396.27;108758;1256;71805;-87
2023/12/21 10:45:33;;;;;;;9.50;7.80;;;;;;;5.91;64.82;98394.19;108656;1256;70427;-86
2023/12/21 10:48:15;;;;;;;10.20;7.40;;;;;;;5.78;65.30;98388.54;108454;1256;71376;-86
2023/12/21 10:50:45;;;;;;;9.70;7.40;;;;;;;5.67;65.49;98382.88;107561;1259;60947;-85
2023/12/21 10:53:18;;;;;;;10.60;8.00;;;;;;;5.56;65.89;98381.52;107695;1259;60410;-86
2023/12/21 10:55:46;;;;;;;12.10;7.30;;;;;;;5.42;66.26;98375.96;108140;1256;72120;-87
2023/12/21 10:58:13;;;;;;;9.70;7.20;;;;;;;5.30;66.53;98373.76;107539;1256;69586;-87
2023/12/21 11:00:43;;;;;;;10.90;8.20;;;;;;;5.22;66.66;98372.39;106560;1257;73684;-88
2023/12/21 11:03:12;;;;;;;8.90;6.70;;;;;;;5.12;66.99;98366.95;106923;1258;59737;-86
2023/12/21 11:05:46;;;;;;;11.20;8.50;;;;;;;5.01;67.34;98362.25;106573;1265;61005;-86
2023/12/21 11:08:14;;;;;;;10.00;7.90;;;;;;;4.93;67.71;98357.59;107417;1256;71861;-88
2023/12/21 11:10:44;;;;;;;12.10;8.70;;;;;;;4.88;68.07;98357.29;108118;1256;72237;-85
2023/12/21 11:13:13;;;;;;;11.40;8.20;;;;;;;4.82;68.20;98354.73;108731;1257;71475;-85
2023/12/21 11:15:42;;;;;;;12.10;8.80;;;;;;;4.74;68.43;98353.32;108057;1257;59417;-84
2023/12/21 11:18:11;;;;;;;10.40;8.60;;;;;;;4.63;68.73;98354.40;107798;1259;59583;-86
2023/12/21 11:20:45;;;;;;;11.70;8.20;;;;;;;4.50;69.32;98350.23;108053;1257;74679;-86
2023/12/21 11:23:18;;;;;;;11.60;7.80;;;;;;;4.47;69.26;98346.90;107932;1256;69131;-85
2023/12/21 11:25:57;;;;;;;10.00;8.50;;;;;;;4.52;69.46;98340.77;107178;1256;71877;-89
2023/12/21 11:28:28;;;;;;;10.50;7.70;;;;;;;4.52;69.61;98340.55;106757;1263;59530;-87
2023/12/21 11:30:56;;;;;;;11.30;8.00;;;;;;;4.45;69.76;98342.09;106858;1256;60445;-87
2023/12/21 11:33:29;;;;;;;11.00;8.50;;;;;;;4.33;69.96;98335.58;108990;1256;72028;-86
2023/12/21 11:35:57;;;;;;;9.50;7.40;;;;;;;4.26;70.08;98325.83;109218;1255;69159;-87
2023/12/21 11:38:45;;;;;;;12.30;8.50;;;;;;;4.24;70.15;98321.70;109235;1256;71469;-86
2023/12/21 11:41:21;;;;;;;12.10;9.50;;;;;;;4.21;70.75;98317.95;108789;1259;58242;-82